sensor_id;sensor_type;location;lat;lon;timestamp;temperature;humidity
41944;DHT22;27636;52.610;13.244;2022-09-09T00:01:49;13.50;99.90
41944;DHT22;27636;52.610;13.244;2022-09-09T00:07:03;13.40;99.90
41944;DHT22;27636;52.610;13.244;2022-09-09T00:12:11;13.40;99.90
41944;DHT22;27636;52.610;13.244;2022-09-09T00:17:24;13.40;99.90
41944;DHT22;27636;52.610;13.244;2022-09-09T00:22:30;13.30;99.90
41944;DHT22;27636;52.610;13.244;2022-09-09T00:27:42;13.20;99.90
41944;DHT22;27636;52.610;13.244;2022-09-09T00:32:49;13.30;99.90
41944;DHT22;27636;52.610;13.244;2022-09-09T00:37:54;13.30;99.90
41944;DHT22;27636;52.610;13.244;2022-09-09T00:43:16;13.20;99.90
41944;DHT22;27636;52.610;13.244;2022-09-09T00:48:28;13.10;99.90
41944;DHT22;27636;52.610;13.244;2022-09-09T00:53:39;13.00;99.90
41944;DHT22;27636;52.610;13.244;2022-09-09T00:58:54;13.00;99.90
41944;DHT22;27636;52.610;13.244;2022-09-09T01:04:00;13.00;99.90
41944;DHT22;27636;52.610;13.244;2022-09-09T01:09:18;13.10;99.90
41944;DHT22;27636;52.610;13.244;2022-09-09T01:14:39;13.20;99.90
41944;DHT22;27636;52.610;13.244;2022-09-09T01:19:53;13.00;99.90
41944;DHT22;27636;52.610;13.244;2022-09-09T01:31:01;12.90;99.90
41944;DHT22;27636;52.610;13.244;2022-09-09T01:36:13;12.90;99.90
41944;DHT22;27636;52.610;13.244;2022-09-09T01:41:24;12.80;99.90
41944;DHT22;27636;52.610;13.244;2022-09-09T01:46:38;12.70;99.90
41944;DHT22;27636;52.610;13.244;2022-09-09T01:51:51;12.60;99.90
41944;DHT22;27636;52.610;13.244;2022-09-09T01:57:08;12.40;99.90
41944;DHT22;27636;52.610;13.244;2022-09-09T02:02:19;12.50;99.90
41944;DHT22;27636;52.610;13.244;2022-09-09T02:07:39;12.60;99.90
41944;DHT22;27636;52.610;13.244;2022-09-09T02:13:00;12.70;99.90
41944;DHT22;27636;52.610;13.244;2022-09-09T02:18:07;12.70;99.90
41944;DHT22;27636;52.610;13.244;2022-09-09T02:23:12;12.60;99.90
41944;DHT22;27636;52.610;13.244;2022-09-09T02:28:21;12.60;99.90
41944;DHT22;27636;52.610;13.244;2022-09-09T02:33:33;12.60;99.90
41944;DHT22;27636;52.610;13.244;2022-09-09T02:38:41;12.60;99.90
41944;DHT22;27636;52.610;13.244;2022-09-09T02:43:49;12.70;99.90
41944;DHT22;27636;52.610;13.244;2022-09-09T02:48:59;12.60;99.90
41944;DHT22;27636;52.610;13.244;2022-09-09T02:54:12;12.60;99.90
41944;DHT22;27636;52.610;13.244;2022-09-09T02:59:21;12.60;99.90
41944;DHT22;27636;52.610;13.244;2022-09-09T03:04:26;12.60;99.90
41944;DHT22;27636;52.610;13.244;2022-09-09T03:09:29;12.60;99.90
41944;DHT22;27636;52.610;13.244;2022-09-09T03:14:33;12.40;99.90
41944;DHT22;27636;52.610;13.244;2022-09-09T03:19:38;12.40;99.90
41944;DHT22;27636;52.610;13.244;2022-09-09T03:24:43;12.50;99.90
41944;DHT22;27636;52.610;13.244;2022-09-09T03:29:47;12.30;99.90
41944;DHT22;27636;52.610;13.244;2022-09-09T03:34:56;12.20;99.90
41944;DHT22;27636;52.610;13.244;2022-09-09T03:40:00;12.20;99.90
41944;DHT22;27636;52.610;13.244;2022-09-09T03:45:05;12.20;99.90
41944;DHT22;27636;52.610;13.244;2022-09-09T03:50:11;12.10;99.90
41944;DHT22;27636;52.610;13.244;2022-09-09T03:55:20;12.00;99.90
41944;DHT22;27636;52.610;13.244;2022-09-09T04:00:23;12.00;99.90
41944;DHT22;27636;52.610;13.244;2022-09-09T04:05:30;12.10;99.90
41944;DHT22;27636;52.610;13.244;2022-09-09T04:10:33;12.20;99.90
41944;DHT22;27636;52.610;13.244;2022-09-09T04:15:36;12.00;99.90
41944;DHT22;27636;52.610;13.244;2022-09-09T04:20:42;12.10;99.90
41944;DHT22;27636;52.610;13.244;2022-09-09T04:25:47;12.10;99.90
41944;DHT22;27636;52.610;13.244;2022-09-09T04:30:51;12.00;99.90
41944;DHT22;27636;52.610;13.244;2022-09-09T04:35:56;12.00;99.90
41944;DHT22;27636;52.610;13.244;2022-09-09T04:41:01;12.00;99.90
41944;DHT22;27636;52.610;13.244;2022-09-09T04:46:05;12.00;99.90
41944;DHT22;27636;52.610;13.244;2022-09-09T04:51:12;12.10;99.90
41944;DHT22;27636;52.610;13.244;2022-09-09T04:56:17;12.10;99.90
41944;DHT22;27636;52.610;13.244;2022-09-09T05:01:26;12.20;99.90
41944;DHT22;27636;52.610;13.244;2022-09-09T05:06:38;12.40;99.90
41944;DHT22;27636;52.610;13.244;2022-09-09T05:11:41;12.50;99.90
41944;DHT22;27636;52.610;13.244;2022-09-09T05:17:00;12.60;99.90
41944;DHT22;27636;52.610;13.244;2022-09-09T05:22:05;12.80;99.90
41944;DHT22;27636;52.610;13.244;2022-09-09T05:27:16;13.10;99.90
41944;DHT22;27636;52.610;13.244;2022-09-09T05:32:21;13.20;99.90
41944;DHT22;27636;52.610;13.244;2022-09-09T05:37:26;13.90;99.90
41944;DHT22;27636;52.610;13.244;2022-09-09T05:42:30;13.60;99.90
41944;DHT22;27636;52.610;13.244;2022-09-09T05:47:36;13.80;99.90
41944;DHT22;27636;52.610;13.244;2022-09-09T05:52:44;13.90;99.90
41944;DHT22;27636;52.610;13.244;2022-09-09T05:57:48;14.00;99.90
41944;DHT22;27636;52.610;13.244;2022-09-09T06:02:52;14.20;99.90
41944;DHT22;27636;52.610;13.244;2022-09-09T06:07:58;14.30;99.90
41944;DHT22;27636;52.610;13.244;2022-09-09T06:13:01;14.40;99.90
41944;DHT22;27636;52.610;13.244;2022-09-09T06:18:05;15.10;99.90
41944;DHT22;27636;52.610;13.244;2022-09-09T06:23:09;17.00;99.90
41944;DHT22;27636;52.610;13.244;2022-09-09T06:28:13;19.30;99.90
41944;DHT22;27636;52.610;13.244;2022-09-09T06:33:18;20.90;99.90
41944;DHT22;27636;52.610;13.244;2022-09-09T06:38:24;21.00;99.90
41944;DHT22;27636;52.610;13.244;2022-09-09T06:43:29;22.20;99.90
41944;DHT22;27636;52.610;13.244;2022-09-09T06:48:33;22.70;99.90
41944;DHT22;27636;52.610;13.244;2022-09-09T06:53:39;21.40;99.90
41944;DHT22;27636;52.610;13.244;2022-09-09T06:58:47;20.70;99.90
41944;DHT22;27636;52.610;13.244;2022-09-09T07:03:59;19.70;99.90
41944;DHT22;27636;52.610;13.244;2022-09-09T07:09:06;19.90;99.90
41944;DHT22;27636;52.610;13.244;2022-09-09T07:14:11;20.50;99.90
41944;DHT22;27636;52.610;13.244;2022-09-09T07:19:21;21.30;99.90
41944;DHT22;27636;52.610;13.244;2022-09-09T07:24:28;23.90;99.90
41944;DHT22;27636;52.610;13.244;2022-09-09T07:29:34;22.20;99.90
41944;DHT22;27636;52.610;13.244;2022-09-09T07:34:38;22.10;99.90
41944;DHT22;27636;52.610;13.244;2022-09-09T07:39:43;22.60;99.90
41944;DHT22;27636;52.610;13.244;2022-09-09T07:44:47;21.10;99.90
41944;DHT22;27636;52.610;13.244;2022-09-09T07:49:52;21.60;99.90
41944;DHT22;27636;52.610;13.244;2022-09-09T07:55:02;20.90;99.90
41944;DHT22;27636;52.610;13.244;2022-09-09T08:00:09;21.00;99.90
41944;DHT22;27636;52.610;13.244;2022-09-09T08:05:19;21.20;99.90
41944;DHT22;27636;52.610;13.244;2022-09-09T08:10:26;22.10;99.90
41944;DHT22;27636;52.610;13.244;2022-09-09T08:15:31;22.80;99.90
41944;DHT22;27636;52.610;13.244;2022-09-09T08:20:36;24.30;99.90
41944;DHT22;27636;52.610;13.244;2022-09-09T08:25:41;25.70;99.90
41944;DHT22;27636;52.610;13.244;2022-09-09T08:30:44;26.80;95.70
41944;DHT22;27636;52.610;13.244;2022-09-09T08:35:50;25.60;97.70
41944;DHT22;27636;52.610;13.244;2022-09-09T08:41:01;26.20;96.20
41944;DHT22;27636;52.610;13.244;2022-09-09T08:46:11;27.40;92.80
41944;DHT22;27636;52.610;13.244;2022-09-09T08:51:17;26.90;90.00
41944;DHT22;27636;52.610;13.244;2022-09-09T08:56:24;26.00;91.40
41944;DHT22;27636;52.610;13.244;2022-09-09T09:01:55;25.00;96.90
41944;DHT22;27636;52.610;13.244;2022-09-09T09:07:16;24.50;99.90
41944;DHT22;27636;52.610;13.244;2022-09-09T09:12:25;23.90;99.90
41944;DHT22;27636;52.610;13.244;2022-09-09T09:17:37;23.00;99.90
41944;DHT22;27636;52.610;13.244;2022-09-09T09:22:48;22.40;99.90
41944;DHT22;27636;52.610;13.244;2022-09-09T09:27:58;22.80;99.90
41944;DHT22;27636;52.610;13.244;2022-09-09T09:33:15;22.90;99.90
41944;DHT22;27636;52.610;13.244;2022-09-09T09:38:23;22.70;99.90
41944;DHT22;27636;52.610;13.244;2022-09-09T09:43:53;24.40;99.90
41944;DHT22;27636;52.610;13.244;2022-09-09T09:48:59;27.20;94.70
41944;DHT22;27636;52.610;13.244;2022-09-09T09:54:09;26.90;91.20
41944;DHT22;27636;52.610;13.244;2022-09-09T09:59:32;26.80;90.80
41944;DHT22;27636;52.610;13.244;2022-09-09T10:05:00;27.30;88.50
41944;DHT22;27636;52.610;13.244;2022-09-09T10:10:08;27.50;86.00
41944;DHT22;27636;52.610;13.244;2022-09-09T10:15:26;28.10;85.10
41944;DHT22;27636;52.610;13.244;2022-09-09T10:20:38;27.80;84.50
41944;DHT22;27636;52.610;13.244;2022-09-09T10:26:11;26.10;87.80
41944;DHT22;27636;52.610;13.244;2022-09-09T10:31:24;26.30;90.30
41944;DHT22;27636;52.610;13.244;2022-09-09T10:36:31;26.10;90.50
41944;DHT22;27636;52.610;13.244;2022-09-09T10:41:43;26.90;84.50
41944;DHT22;27636;52.610;13.244;2022-09-09T10:47:00;26.80;85.20
41944;DHT22;27636;52.610;13.244;2022-09-09T10:52:15;27.70;81.00
41944;DHT22;27636;52.610;13.244;2022-09-09T10:57:27;27.90;81.90
41944;DHT22;27636;52.610;13.244;2022-09-09T11:02:34;28.40;79.80
41944;DHT22;27636;52.610;13.244;2022-09-09T11:07:41;28.40;77.30
41944;DHT22;27636;52.610;13.244;2022-09-09T11:12:49;28.60;76.80
41944;DHT22;27636;52.610;13.244;2022-09-09T11:17:56;28.40;77.80
41944;DHT22;27636;52.610;13.244;2022-09-09T11:23:03;27.30;81.80
41944;DHT22;27636;52.610;13.244;2022-09-09T11:28:24;26.90;80.20
41944;DHT22;27636;52.610;13.244;2022-09-09T11:33:51;27.70;79.70
41944;DHT22;27636;52.610;13.244;2022-09-09T11:39:05;26.90;82.10
41944;DHT22;27636;52.610;13.244;2022-09-09T11:44:17;27.60;77.80
41944;DHT22;27636;52.610;13.244;2022-09-09T11:49:28;27.60;77.40
41944;DHT22;27636;52.610;13.244;2022-09-09T11:54:33;28.00;75.60
41944;DHT22;27636;52.610;13.244;2022-09-09T11:59:50;28.60;71.00
41944;DHT22;27636;52.610;13.244;2022-09-09T12:05:02;28.60;73.80
41944;DHT22;27636;52.610;13.244;2022-09-09T12:10:22;29.50;66.70
41944;DHT22;27636;52.610;13.244;2022-09-09T12:15:27;29.40;73.00
41944;DHT22;27636;52.610;13.244;2022-09-09T12:20:35;28.90;70.40
41944;DHT22;27636;52.610;13.244;2022-09-09T12:26:03;27.90;71.30
41944;DHT22;27636;52.610;13.244;2022-09-09T12:31:11;29.10;69.60
41944;DHT22;27636;52.610;13.244;2022-09-09T12:36:24;29.30;68.10
41944;DHT22;27636;52.610;13.244;2022-09-09T12:41:29;29.40;67.00
41944;DHT22;27636;52.610;13.244;2022-09-09T12:46:36;28.50;67.00
41944;DHT22;27636;52.610;13.244;2022-09-09T12:51:43;30.00;63.80
41944;DHT22;27636;52.610;13.244;2022-09-09T12:56:47;29.40;66.00
41944;DHT22;27636;52.610;13.244;2022-09-09T13:01:58;28.10;69.80
41944;DHT22;27636;52.610;13.244;2022-09-09T13:07:10;25.90;74.80
41944;DHT22;27636;52.610;13.244;2022-09-09T13:12:17;25.10;79.20
41944;DHT22;27636;52.610;13.244;2022-09-09T13:17:22;24.40;83.50
41944;DHT22;27636;52.610;13.244;2022-09-09T13:22:31;24.10;84.60
41944;DHT22;27636;52.610;13.244;2022-09-09T13:27:37;23.70;86.80
41944;DHT22;27636;52.610;13.244;2022-09-09T13:32:41;23.70;86.50
41944;DHT22;27636;52.610;13.244;2022-09-09T13:37:46;23.70;87.90
41944;DHT22;27636;52.610;13.244;2022-09-09T13:42:52;23.80;89.70
41944;DHT22;27636;52.610;13.244;2022-09-09T13:47:56;23.70;89.80
41944;DHT22;27636;52.610;13.244;2022-09-09T13:53:01;23.40;90.80
41944;DHT22;27636;52.610;13.244;2022-09-09T13:58:04;23.40;90.40
41944;DHT22;27636;52.610;13.244;2022-09-09T14:03:08;23.50;91.60
41944;DHT22;27636;52.610;13.244;2022-09-09T14:08:20;23.70;91.30
41944;DHT22;27636;52.610;13.244;2022-09-09T14:13:24;23.40;90.80
41944;DHT22;27636;52.610;13.244;2022-09-09T14:18:27;23.00;93.50
41944;DHT22;27636;52.610;13.244;2022-09-09T14:23:32;23.10;93.20
41944;DHT22;27636;52.610;13.244;2022-09-09T14:28:36;23.60;92.60
41944;DHT22;27636;52.610;13.244;2022-09-09T14:33:57;24.60;90.70
41944;DHT22;27636;52.610;13.244;2022-09-09T14:39:03;24.60;85.30
41944;DHT22;27636;52.610;13.244;2022-09-09T14:44:06;25.10;86.40
41944;DHT22;27636;52.610;13.244;2022-09-09T14:49:11;24.80;83.80
41944;DHT22;27636;52.610;13.244;2022-09-09T14:54:17;25.40;81.00
41944;DHT22;27636;52.610;13.244;2022-09-09T14:59:20;25.90;80.70
41944;DHT22;27636;52.610;13.244;2022-09-09T15:04:23;26.20;76.10
41944;DHT22;27636;52.610;13.244;2022-09-09T15:09:28;25.90;75.30
41944;DHT22;27636;52.610;13.244;2022-09-09T15:14:31;25.30;75.20
41944;DHT22;27636;52.610;13.244;2022-09-09T15:19:34;25.50;73.30
41944;DHT22;27636;52.610;13.244;2022-09-09T15:24:39;24.70;76.60
41944;DHT22;27636;52.610;13.244;2022-09-09T15:29:42;24.40;81.60
41944;DHT22;27636;52.610;13.244;2022-09-09T15:34:46;24.20;83.70
41944;DHT22;27636;52.610;13.244;2022-09-09T15:39:51;23.50;90.10
41944;DHT22;27636;52.610;13.244;2022-09-09T15:44:55;23.00;91.10
41944;DHT22;27636;52.610;13.244;2022-09-09T15:49:58;22.30;95.70
41944;DHT22;27636;52.610;13.244;2022-09-09T15:55:03;21.80;99.90
41944;DHT22;27636;52.610;13.244;2022-09-09T16:00:07;21.20;99.90
41944;DHT22;27636;52.610;13.244;2022-09-09T16:05:11;20.80;99.90
41944;DHT22;27636;52.610;13.244;2022-09-09T16:10:16;20.50;99.90
41944;DHT22;27636;52.610;13.244;2022-09-09T16:15:19;20.20;99.90
41944;DHT22;27636;52.610;13.244;2022-09-09T16:20:25;19.90;99.90
41944;DHT22;27636;52.610;13.244;2022-09-09T16:25:30;19.60;99.90
41944;DHT22;27636;52.610;13.244;2022-09-09T16:30:33;19.50;99.90
41944;DHT22;27636;52.610;13.244;2022-09-09T16:35:36;19.40;99.90
41944;DHT22;27636;52.610;13.244;2022-09-09T16:40:40;19.30;99.90
41944;DHT22;27636;52.610;13.244;2022-09-09T16:45:44;19.20;99.90
41944;DHT22;27636;52.610;13.244;2022-09-09T16:50:48;19.10;99.90
41944;DHT22;27636;52.610;13.244;2022-09-09T16:55:53;19.00;99.90
41944;DHT22;27636;52.610;13.244;2022-09-09T17:00:58;18.80;99.90
41944;DHT22;27636;52.610;13.244;2022-09-09T17:06:01;18.60;99.90
41944;DHT22;27636;52.610;13.244;2022-09-09T17:11:12;18.50;99.90
41944;DHT22;27636;52.610;13.244;2022-09-09T17:16:18;18.20;99.90
41944;DHT22;27636;52.610;13.244;2022-09-09T17:21:25;18.00;99.90
41944;DHT22;27636;52.610;13.244;2022-09-09T17:26:32;17.70;99.90
41944;DHT22;27636;52.610;13.244;2022-09-09T17:31:36;17.50;99.90
41944;DHT22;27636;52.610;13.244;2022-09-09T17:36:39;17.30;99.90
41944;DHT22;27636;52.610;13.244;2022-09-09T17:41:44;17.10;99.90
41944;DHT22;27636;52.610;13.244;2022-09-09T17:46:48;16.90;99.90
41944;DHT22;27636;52.610;13.244;2022-09-09T17:51:52;16.70;99.90
41944;DHT22;27636;52.610;13.244;2022-09-09T17:56:58;16.60;99.90
41944;DHT22;27636;52.610;13.244;2022-09-09T18:02:02;16.60;99.90
41944;DHT22;27636;52.610;13.244;2022-09-09T18:07:07;16.50;99.90
41944;DHT22;27636;52.610;13.244;2022-09-09T18:12:11;16.50;99.90
41944;DHT22;27636;52.610;13.244;2022-09-09T18:17:15;16.40;99.90
41944;DHT22;27636;52.610;13.244;2022-09-09T18:22:18;16.30;99.90
41944;DHT22;27636;52.610;13.244;2022-09-09T18:27:23;16.20;99.90
41944;DHT22;27636;52.610;13.244;2022-09-09T18:32:26;16.20;99.90
41944;DHT22;27636;52.610;13.244;2022-09-09T18:37:30;16.20;99.90
41944;DHT22;27636;52.610;13.244;2022-09-09T18:42:37;16.10;99.90
41944;DHT22;27636;52.610;13.244;2022-09-09T18:47:40;15.80;99.90
41944;DHT22;27636;52.610;13.244;2022-09-09T18:52:44;15.80;99.90
41944;DHT22;27636;52.610;13.244;2022-09-09T18:57:49;15.70;99.90
41944;DHT22;27636;52.610;13.244;2022-09-09T19:02:52;15.60;99.90
41944;DHT22;27636;52.610;13.244;2022-09-09T19:07:55;15.90;99.90
41944;DHT22;27636;52.610;13.244;2022-09-09T19:13:00;16.30;99.90
41944;DHT22;27636;52.610;13.244;2022-09-09T19:18:03;16.70;99.90
41944;DHT22;27636;52.610;13.244;2022-09-09T19:23:07;16.90;99.90
41944;DHT22;27636;52.610;13.244;2022-09-09T19:28:13;17.10;99.90
41944;DHT22;27636;52.610;13.244;2022-09-09T19:33:16;17.30;99.90
41944;DHT22;27636;52.610;13.244;2022-09-09T19:38:19;17.20;99.90
41944;DHT22;27636;52.610;13.244;2022-09-09T19:43:23;17.00;99.90
41944;DHT22;27636;52.610;13.244;2022-09-09T19:48:27;16.90;99.90
41944;DHT22;27636;52.610;13.244;2022-09-09T19:53:35;16.50;99.90
41944;DHT22;27636;52.610;13.244;2022-09-09T19:58:41;16.20;99.90
41944;DHT22;27636;52.610;13.244;2022-09-09T20:03:48;16.00;99.90
41944;DHT22;27636;52.610;13.244;2022-09-09T20:08:56;15.90;99.90
41944;DHT22;27636;52.610;13.244;2022-09-09T20:14:01;15.70;99.90
41944;DHT22;27636;52.610;13.244;2022-09-09T20:19:07;15.80;99.90
41944;DHT22;27636;52.610;13.244;2022-09-09T20:24:13;15.80;99.90
41944;DHT22;27636;52.610;13.244;2022-09-09T20:29:19;16.10;99.90
41944;DHT22;27636;52.610;13.244;2022-09-09T20:34:22;16.10;99.90
41944;DHT22;27636;52.610;13.244;2022-09-09T20:39:27;16.40;99.90
41944;DHT22;27636;52.610;13.244;2022-09-09T20:44:32;16.40;99.90
41944;DHT22;27636;52.610;13.244;2022-09-09T20:49:35;16.20;99.90
41944;DHT22;27636;52.610;13.244;2022-09-09T20:54:39;16.10;99.90
41944;DHT22;27636;52.610;13.244;2022-09-09T20:59:44;16.00;99.90
41944;DHT22;27636;52.610;13.244;2022-09-09T21:04:49;15.80;99.90
41944;DHT22;27636;52.610;13.244;2022-09-09T21:09:53;15.80;99.90
41944;DHT22;27636;52.610;13.244;2022-09-09T21:15:00;15.50;99.90
41944;DHT22;27636;52.610;13.244;2022-09-09T21:20:04;15.20;99.90
41944;DHT22;27636;52.610;13.244;2022-09-09T21:25:08;15.10;99.90
41944;DHT22;27636;52.610;13.244;2022-09-09T21:30:14;15.00;99.90
41944;DHT22;27636;52.610;13.244;2022-09-09T21:35:17;15.10;99.90
41944;DHT22;27636;52.610;13.244;2022-09-09T21:40:21;15.00;99.90
41944;DHT22;27636;52.610;13.244;2022-09-09T22:00:33;14.70;99.90
41944;DHT22;27636;52.610;13.244;2022-09-09T22:05:39;14.70;99.90
41944;DHT22;27636;52.610;13.244;2022-09-09T22:10:44;14.70;99.90
41944;DHT22;27636;52.610;13.244;2022-09-09T22:15:49;14.70;99.90
41944;DHT22;27636;52.610;13.244;2022-09-09T22:20:52;14.80;99.90
41944;DHT22;27636;52.610;13.244;2022-09-09T22:25:56;14.90;99.90
41944;DHT22;27636;52.610;13.244;2022-09-09T22:31:00;14.80;99.90
41944;DHT22;27636;52.610;13.244;2022-09-09T22:36:04;14.70;99.90
41944;DHT22;27636;52.610;13.244;2022-09-09T22:41:09;14.70;99.90
41944;DHT22;27636;52.610;13.244;2022-09-09T22:46:13;14.50;99.90
41944;DHT22;27636;52.610;13.244;2022-09-09T22:51:17;14.40;99.90
41944;DHT22;27636;52.610;13.244;2022-09-09T22:56:20;14.20;99.90
41944;DHT22;27636;52.610;13.244;2022-09-09T23:01:25;14.00;99.90
41944;DHT22;27636;52.610;13.244;2022-09-09T23:06:29;14.10;99.90
41944;DHT22;27636;52.610;13.244;2022-09-09T23:11:35;13.90;99.90
41944;DHT22;27636;52.610;13.244;2022-09-09T23:16:41;13.70;99.90
41944;DHT22;27636;52.610;13.244;2022-09-09T23:21:45;13.60;99.90
